This is the latest recevied weather packets stored in our database for station/object KI7MOQ. If no packets are shown the sender has not sent any weather packets the latest 1 day(s).
| Time | Temp. | Humidity | Pressure | Rain* | Wind** | Luminosity | Snow |
|---|---|---|---|---|---|---|---|
| 1836274593 | 22.22° C | 56% | 1014.3 hPa | 0 mm | 0 m/s | 0 W/m² | - |
| 1836274447 | 22.22° C | 57% | 1014.4 hPa | 0 mm | 0 m/s | 0 W/m² | - |
| 1836274291 | 22.78° C | 55% | 1014.1 hPa | 0 mm | 0 m/s | 0 W/m² | - |
| 1836274145 | 22.22° C | 57% | 1014.3 hPa | 0 mm | 0 m/s | 0 W/m² | - |
| 1836273990 | 22.78° C | 55% | 1013.9 hPa | 0 mm | 0 m/s | 0 W/m² | - |
| 1778059192 | 13.33° C | 85% | 1020.2 hPa | 0 mm | 0 m/s | 0 W/m² | - |
| 1778058890 | 13.33° C | 85% | 1020.3 hPa | 0 mm | 0 m/s | 0 W/m² | - |
| 1778058587 | 13.33° C | 85% | 1020.3 hPa | 0 mm | 0 m/s | 0 W/m² | - |
| 1778058285 | 13.89° C | 85% | 1020.4 hPa | 0 mm | 0 m/s | 0 W/m² | - |
| 1778057981 | 13.89° C | 85% | 1020.4 hPa | 0 mm | 0 m/s | 0 W/m² | - |
| 1778057678 | 13.89° C | 85% | 1020.3 hPa | 0 mm | 0 m/s | 0 W/m² | - |
| 1778057374 | 13.89° C | 85% | 1020.2 hPa | 0 mm | 0 m/s | 0 W/m² | - |
| 1778057071 | 13.89° C | 84% | 1020.3 hPa | 0 mm | 0 m/s | 0 W/m² | - |
| 1778056767 | 13.89° C | 84% | 1020.2 hPa | 0 mm | 0 m/s | 0 W/m² | - |
| 1778056465 | 13.89° C | 84% | 1020.3 hPa | 0 mm | 0.45 m/s, 95° | 0 W/m² | - |
| 1778056162 | 13.89° C | 84% | 1020.5 hPa | 0 mm | 0 m/s | 0 W/m² | - |
| 1778055859 | 13.89° C | 84% | 1020.2 hPa | 0 mm | 0 m/s | 0 W/m² | - |
| 1778055554 | 13.89° C | 84% | 1020.3 hPa | 0 mm | 0.45 m/s, 95° | 0 W/m² | - |
| 1778055253 | 13.89° C | 84% | 1020.4 hPa | 0 mm | 0.45 m/s, 94° | 0 W/m² | - |
| 1778054945 | 13.89° C | 84% | 1020.3 hPa | 0 mm | 0 m/s | 0 W/m² | - |
| 1778054641 | 13.89° C | 84% | 1020.3 hPa | 0 mm | 0 m/s | 0 W/m² | - |
| 1778054339 | 13.89° C | 84% | 1020.2 hPa | 0 mm | 0 m/s | 0 W/m² | - |
| 1778054035 | 13.89° C | 84% | 1020.1 hPa | 0 mm | 0 m/s | 0 W/m² | - |
| 1778053733 | 13.89° C | 84% | 1020.1 hPa | 0 mm | 0 m/s | 0 W/m² | - |
| 1778053430 | 13.89° C | 84% | 1020 hPa | 0 mm | 0 m/s | 0 W/m² | - |
* Rain latest hour (hover to see other rain measurements)
** Current wind speed in m/s (hover to see current wind gust speed)